createdAt,value
2023-06-17T00:01:44.444Z,5.43
2023-06-17T00:04:12.531Z,6.28
2023-06-17T00:06:40.693Z,5.85
2023-06-17T00:09:08.864Z,7.25
2023-06-17T00:11:37.747Z,10.85
2023-06-17T00:14:07.317Z,7.25
2023-06-17T00:16:38.026Z,8.48
2023-06-17T00:19:07.196Z,6.00
2023-06-17T00:21:35.848Z,7.22
2023-06-17T00:24:04.225Z,9.35
2023-06-17T00:26:32.392Z,6.55
2023-06-17T00:29:00.489Z,6.50
2023-06-17T00:31:29.960Z,8.02
2023-06-17T00:33:58.108Z,6.07
2023-06-17T00:36:26.267Z,6.57
2023-06-17T00:38:54.600Z,7.45
2023-06-17T00:41:23.384Z,6.65
2023-06-17T00:43:51.532Z,6.35
2023-06-17T00:46:24.853Z,6.93
2023-06-17T00:51:22.722Z,6.50
2023-06-17T00:53:51.634Z,6.47
2023-06-17T00:56:20.008Z,8.52
2023-06-17T00:58:48.279Z,7.15
2023-06-17T01:01:18.072Z,7.47
2023-06-17T01:03:46.864Z,8.00
2023-06-17T01:06:26.053Z,6.30
2023-06-17T01:09:02.735Z,6.53
2023-06-17T01:11:32.905Z,8.10
2023-06-17T01:14:02.020Z,6.00
2023-06-17T01:16:33.223Z,6.93
2023-06-17T01:19:03.457Z,7.35
2023-06-17T01:21:33.266Z,6.38
2023-06-17T01:24:04.634Z,7.80
2023-06-17T01:26:36.581Z,7.10
2023-06-17T01:29:04.996Z,7.65
2023-06-17T01:31:33.752Z,9.07
2023-06-17T01:34:03.931Z,8.38
2023-06-17T01:36:34.850Z,7.65
2023-06-17T01:39:05.386Z,8.32
2023-06-17T01:41:38.570Z,7.63
2023-06-17T01:46:37.012Z,6.82
2023-06-17T01:49:05.306Z,7.70
2023-06-17T01:51:33.416Z,8.85
2023-06-17T01:54:01.626Z,8.07
2023-06-17T01:56:30.084Z,8.27
2023-06-17T01:58:59.634Z,7.60
2023-06-17T02:01:27.755Z,7.28
2023-06-17T02:03:55.994Z,8.00
2023-06-17T02:06:24.597Z,7.50
2023-06-17T02:08:54.400Z,9.82
2023-06-17T02:11:22.605Z,7.88
2023-06-17T02:13:50.794Z,10.75
2023-06-17T02:16:20.367Z,7.95
2023-06-17T02:18:49.450Z,8.57
2023-06-17T02:21:17.547Z,10.02
2023-06-17T02:23:49.539Z,10.10
2023-06-17T02:26:18.257Z,7.45
2023-06-17T02:28:46.477Z,8.38
2023-06-17T02:31:14.637Z,12.02
2023-06-17T02:33:44.085Z,9.13
2023-06-17T02:36:12.996Z,9.20
2023-06-17T02:38:41.210Z,8.35
2023-06-17T02:41:09.387Z,11.05
2023-06-17T02:43:37.482Z,10.02
2023-06-17T02:46:05.577Z,8.77
2023-06-17T02:48:33.741Z,8.25
2023-06-17T02:51:05.232Z,7.50
2023-06-17T02:53:33.365Z,7.68
2023-06-17T02:56:01.720Z,10.63
2023-06-17T02:58:30.012Z,7.85
2023-06-17T03:00:59.042Z,12.05
2023-06-17T03:03:35.349Z,10.43
2023-06-17T03:06:08.364Z,9.10
2023-06-17T03:08:38.903Z,9.25
2023-06-17T03:11:07.035Z,8.73
2023-06-17T03:13:35.331Z,10.20
2023-06-17T03:16:03.878Z,8.65
2023-06-17T03:18:32.067Z,8.18
2023-06-17T03:21:00.182Z,10.38
2023-06-17T03:23:31.122Z,9.65
2023-06-17T03:25:59.497Z,10.80
2023-06-17T03:28:27.918Z,9.98
2023-06-17T03:30:56.090Z,10.68
2023-06-17T03:33:24.253Z,11.75
2023-06-17T03:35:52.776Z,9.45
2023-06-17T03:38:21.516Z,10.50
2023-06-17T03:40:51.187Z,11.05
2023-06-17T03:43:19.283Z,9.38
2023-06-17T03:45:47.401Z,11.73
2023-06-17T03:48:15.591Z,8.23
2023-06-17T03:50:43.718Z,11.40
2023-06-17T03:53:12.298Z,9.02
2023-06-17T03:55:40.818Z,9.35
2023-06-17T03:58:16.103Z,8.57
2023-06-17T04:00:44.429Z,9.85
2023-06-17T04:03:12.989Z,10.73
2023-06-17T04:05:43.106Z,10.57
2023-06-17T04:08:11.249Z,9.40
2023-06-17T04:10:39.654Z,11.05
2023-06-17T04:13:07.788Z,9.00
2023-06-17T04:15:37.292Z,12.90
2023-06-17T04:18:05.559Z,8.75
2023-06-17T04:20:35.784Z,11.68
2023-06-17T04:23:04.024Z,9.18
2023-06-17T04:25:33.515Z,9.93
2023-06-17T04:28:02.681Z,9.95
2023-06-17T04:30:31.379Z,11.50
2023-06-17T04:33:01.768Z,10.80
2023-06-17T04:35:30.372Z,10.00
2023-06-17T04:37:58.706Z,10.32
2023-06-17T04:40:28.530Z,15.93
2023-06-17T04:42:56.727Z,13.95
2023-06-17T04:45:24.846Z,10.30
2023-06-17T04:47:53.037Z,8.80
2023-06-17T04:50:24.865Z,8.77
2023-06-17T04:52:53.352Z,10.07
2023-06-17T04:55:23.078Z,13.50
2023-06-17T04:57:51.422Z,21.83
2023-06-17T05:00:22.369Z,9.57
2023-06-17T05:02:51.352Z,8.90
2023-06-17T05:05:19.510Z,10.23
2023-06-17T05:07:49.069Z,9.88
2023-06-17T05:10:17.187Z,8.25
2023-06-17T05:12:45.318Z,9.25
2023-06-17T05:15:13.448Z,9.30
2023-06-17T05:17:44.810Z,11.43
2023-06-17T05:20:13.593Z,9.88
2023-06-17T05:22:41.691Z,10.75
2023-06-17T05:25:11.483Z,8.60
2023-06-17T05:27:39.810Z,9.48
2023-06-17T05:30:09.127Z,11.63
2023-06-17T05:32:37.264Z,11.75
2023-06-17T05:35:06.221Z,12.23
2023-06-17T05:37:34.526Z,9.52
2023-06-17T05:40:03.934Z,9.15
2023-06-17T05:42:33.457Z,10.15
2023-06-17T05:45:01.678Z,11.10
2023-06-17T05:47:29.805Z,9.63
2023-06-17T05:49:57.946Z,10.98
2023-06-17T05:52:26.133Z,11.73
2023-06-17T05:54:54.265Z,14.38
2023-06-17T05:57:23.121Z,11.35
2023-06-17T05:59:52.685Z,12.27
2023-06-17T06:02:20.860Z,10.70
2023-06-17T06:04:49.332Z,11.75
2023-06-17T06:07:17.494Z,11.13
2023-06-17T06:09:45.590Z,12.63
2023-06-17T06:12:13.814Z,10.15
2023-06-17T06:14:41.969Z,11.18
2023-06-17T06:17:11.479Z,12.85
2023-06-17T06:19:39.567Z,12.05
2023-06-17T06:22:07.780Z,12.32
2023-06-17T06:24:36.004Z,11.50
2023-06-17T06:27:04.258Z,10.98
2023-06-17T06:29:32.346Z,11.50
2023-06-17T06:32:00.610Z,13.82
2023-06-17T06:34:31.339Z,10.60
2023-06-17T06:36:59.656Z,8.57
2023-06-17T06:39:28.456Z,9.88
2023-06-17T06:41:57.229Z,10.68
2023-06-17T06:44:25.324Z,9.77
2023-06-17T06:46:53.534Z,10.25
2023-06-17T06:49:22.343Z,8.90
2023-06-17T06:51:51.892Z,9.07
2023-06-17T06:54:20.004Z,9.05
2023-06-17T06:56:48.118Z,7.68
2023-06-17T06:59:16.376Z,7.82
2023-06-17T07:01:44.676Z,6.88
2023-06-17T07:04:12.918Z,7.90
2023-06-17T07:06:41.368Z,6.60
2023-06-17T07:09:10.868Z,6.18
2023-06-17T07:11:39.014Z,6.70
2023-06-17T07:14:07.832Z,7.13
2023-06-17T07:16:36.253Z,7.15
2023-06-17T07:19:04.374Z,4.78
2023-06-17T07:21:32.491Z,5.70
2023-06-17T07:24:00.710Z,9.40
2023-06-17T07:26:30.202Z,7.03
2023-06-17T07:28:58.289Z,7.22
2023-06-17T07:31:26.501Z,6.57
2023-06-17T07:33:59.632Z,7.57
2023-06-17T07:36:28.803Z,6.68
2023-06-17T07:38:57.936Z,4.72
2023-06-17T07:41:26.279Z,7.65
2023-06-17T07:43:55.833Z,5.05
2023-06-17T07:46:24.005Z,5.75
2023-06-17T07:48:52.207Z,5.38
2023-06-17T07:51:20.566Z,6.15
2023-06-17T07:53:48.753Z,6.55
2023-06-17T07:56:20.142Z,6.15
2023-06-17T07:58:48.512Z,3.92
2023-06-17T08:01:18.081Z,6.25
2023-06-17T08:03:46.431Z,4.40
2023-06-17T08:06:15.911Z,4.40
2023-06-17T08:08:44.407Z,3.50
2023-06-17T08:11:12.618Z,3.67
2023-06-17T08:13:40.776Z,4.13
2023-06-17T08:16:08.902Z,4.93
2023-06-17T08:18:38.425Z,5.07
2023-06-17T08:21:06.553Z,5.53
2023-06-17T08:23:34.715Z,3.75
2023-06-17T08:26:03.035Z,7.07
2023-06-17T08:28:31.164Z,3.72
2023-06-17T08:30:59.281Z,3.60
2023-06-17T08:33:27.862Z,3.33
2023-06-17T08:35:57.441Z,3.80
2023-06-17T08:38:25.561Z,4.28
2023-06-17T08:40:54.291Z,5.18
2023-06-17T08:43:23.073Z,3.63
2023-06-17T08:45:51.354Z,4.38
2023-06-17T08:48:20.032Z,3.28
2023-06-17T08:50:50.271Z,3.55
2023-06-17T08:53:21.187Z,4.85
2023-06-17T08:55:49.925Z,5.05
2023-06-17T08:58:18.125Z,5.78
2023-06-17T09:00:46.316Z,3.47
2023-06-17T09:03:17.663Z,6.00
2023-06-17T09:05:45.770Z,3.72
2023-06-17T09:08:14.036Z,4.32
2023-06-17T09:10:46.581Z,3.92
2023-06-17T09:13:14.847Z,4.50
2023-06-17T09:15:43.625Z,4.40
2023-06-17T09:18:11.972Z,5.15
2023-06-17T09:20:40.112Z,5.20
2023-06-17T09:23:17.745Z,3.85
2023-06-17T09:25:47.260Z,4.53
2023-06-17T09:28:17.791Z,3.30
2023-06-17T09:30:54.549Z,5.32
2023-06-17T09:33:24.676Z,4.78
2023-06-17T09:36:01.039Z,3.72
2023-06-17T09:38:29.833Z,3.70
2023-06-17T09:41:00.673Z,3.50
2023-06-17T09:43:30.077Z,4.90
2023-06-17T09:46:02.185Z,4.07
2023-06-17T09:48:34.506Z,3.33
2023-06-17T09:51:06.327Z,3.58
2023-06-17T09:53:38.525Z,4.00
2023-06-17T09:56:11.897Z,5.85
2023-06-17T09:58:44.050Z,7.10
2023-06-17T10:01:13.625Z,3.85
2023-06-17T10:03:42.216Z,3.22
2023-06-17T10:06:12.092Z,3.67
2023-06-17T10:08:43.352Z,3.20
2023-06-17T10:11:15.502Z,4.35
2023-06-17T10:13:46.373Z,5.22
2023-06-17T10:16:17.613Z,4.10
2023-06-17T10:18:49.842Z,3.00
2023-06-17T10:21:19.292Z,3.38
2023-06-17T10:23:49.040Z,2.85
2023-06-17T10:26:18.623Z,3.22
2023-06-17T10:28:59.049Z,4.70
2023-06-17T10:31:29.060Z,4.75
2023-06-17T10:33:58.868Z,2.65
2023-06-17T10:36:28.393Z,3.92
2023-06-17T10:38:58.258Z,3.15
2023-06-17T10:41:54.627Z,3.78
2023-06-17T10:44:31.315Z,2.85
2023-06-17T10:47:00.220Z,3.08
2023-06-17T10:49:39.651Z,8.00
2023-06-17T10:52:13.378Z,4.40
2023-06-17T10:54:47.804Z,3.22
2023-06-17T10:57:17.395Z,3.63
2023-06-17T10:59:45.490Z,2.95
2023-06-17T11:02:13.604Z,2.55
2023-06-17T11:04:42.994Z,7.30
2023-06-17T11:07:11.569Z,2.45
2023-06-17T11:09:39.735Z,2.53
2023-06-17T11:12:09.162Z,2.60
2023-06-17T11:14:41.468Z,3.40
2023-06-17T11:17:10.592Z,6.22
2023-06-17T11:19:38.819Z,3.22
2023-06-17T11:22:08.731Z,4.05
2023-06-17T11:24:38.260Z,2.70
2023-06-17T11:27:07.519Z,2.97
2023-06-17T11:29:35.796Z,3.30
2023-06-17T11:32:05.852Z,2.95
2023-06-17T11:34:35.157Z,2.50
2023-06-17T11:37:07.762Z,4.82
2023-06-17T11:39:39.387Z,3.22
2023-06-17T11:42:10.124Z,3.40
2023-06-17T11:44:38.846Z,3.15
2023-06-17T11:47:10.792Z,3.10
2023-06-17T11:49:43.839Z,3.05
2023-06-17T11:52:13.027Z,4.30
2023-06-17T11:54:46.820Z,2.75
2023-06-17T11:57:19.332Z,2.75
2023-06-17T11:59:47.575Z,3.55
2023-06-17T12:02:18.211Z,3.08
2023-06-17T12:04:47.425Z,3.00
2023-06-17T12:07:16.014Z,4.20
2023-06-17T12:09:52.033Z,2.53
2023-06-17T12:12:31.071Z,6.07
2023-06-17T12:15:04.657Z,6.93
2023-06-17T12:17:42.218Z,2.60
2023-06-17T12:20:16.008Z,2.85
2023-06-17T12:22:44.476Z,3.58
2023-06-17T12:25:13.456Z,3.05
2023-06-17T12:27:42.471Z,3.67
2023-06-17T12:30:11.671Z,3.78
2023-06-17T12:32:41.952Z,6.68
2023-06-17T12:35:12.669Z,3.05
2023-06-17T12:37:43.184Z,2.30
2023-06-17T12:40:12.697Z,3.55
2023-06-17T12:42:40.918Z,3.28
2023-06-17T12:45:10.099Z,4.13
2023-06-17T12:47:38.925Z,3.00
2023-06-17T12:50:09.443Z,3.08
2023-06-17T12:52:37.757Z,3.30
2023-06-17T12:55:06.843Z,3.13
2023-06-17T12:57:35.563Z,3.40
2023-06-17T13:00:05.972Z,4.97
2023-06-17T13:02:37.011Z,3.85
2023-06-17T13:05:06.420Z,3.63
2023-06-17T13:07:36.010Z,2.60
2023-06-17T13:10:04.624Z,5.43
2023-06-17T13:12:33.114Z,2.78
2023-06-17T13:15:01.555Z,3.92
2023-06-17T13:17:29.778Z,2.72
2023-06-17T13:19:58.460Z,2.90
2023-06-17T13:22:28.273Z,3.28
2023-06-17T13:24:58.241Z,4.60
2023-06-17T13:27:26.986Z,25.67
2023-06-17T13:29:55.233Z,9.32
2023-06-17T13:32:23.721Z,4.45
2023-06-17T13:34:51.865Z,3.17
2023-06-17T13:37:20.188Z,2.85
2023-06-17T13:39:48.297Z,3.65
2023-06-17T13:42:18.486Z,3.67
2023-06-17T13:44:46.640Z,4.07
2023-06-17T13:47:15.862Z,4.95
2023-06-17T13:49:44.160Z,3.00
2023-06-17T13:52:13.158Z,5.18
2023-06-17T13:54:41.363Z,2.78
2023-06-17T13:57:10.396Z,3.50
2023-06-17T13:59:40.192Z,2.90
2023-06-17T14:02:08.893Z,3.30
2023-06-17T14:04:37.081Z,3.22
2023-06-17T14:07:05.528Z,4.68
2023-06-17T14:09:34.005Z,3.38
2023-06-17T14:12:03.928Z,3.22
2023-06-17T14:14:32.068Z,3.95
2023-06-17T14:17:01.617Z,2.67
2023-06-17T14:19:32.510Z,3.13
2023-06-17T14:22:05.962Z,3.17
2023-06-17T14:24:34.721Z,3.88
2023-06-17T14:27:27.470Z,6.55
2023-06-17T14:29:55.681Z,5.65
2023-06-17T14:32:25.234Z,2.70
2023-06-17T14:34:55.036Z,3.35
2023-06-17T14:37:23.130Z,3.95
2023-06-17T14:39:51.214Z,3.10
2023-06-17T14:42:19.365Z,2.72
2023-06-17T14:44:47.481Z,3.45
2023-06-17T14:47:15.664Z,3.03
2023-06-17T14:49:45.526Z,4.45
2023-06-17T14:52:14.306Z,3.10
2023-06-17T14:54:42.697Z,2.95
2023-06-17T14:57:10.977Z,3.95
2023-06-17T14:59:39.347Z,3.13
2023-06-17T15:02:43.168Z,3.38
2023-06-17T15:05:13.241Z,2.92
2023-06-17T15:07:42.552Z,5.57
2023-06-17T15:10:11.143Z,3.72
2023-06-17T15:12:43.281Z,3.00
2023-06-17T15:15:13.204Z,3.05
2023-06-17T15:17:42.230Z,3.40
2023-06-17T15:20:12.584Z,4.22
2023-06-17T15:22:41.000Z,3.88
2023-06-17T15:25:09.771Z,6.05
2023-06-17T15:27:37.936Z,2.92
2023-06-17T15:30:07.235Z,3.53
2023-06-17T15:32:35.578Z,6.13
2023-06-17T15:35:03.756Z,3.85
2023-06-17T15:37:35.024Z,3.25
2023-06-17T15:40:05.234Z,3.72
2023-06-17T15:42:33.796Z,5.15
2023-06-17T15:45:01.972Z,3.85
2023-06-17T15:47:30.116Z,4.45
2023-06-17T15:49:58.264Z,3.53
2023-06-17T15:52:28.240Z,3.88
2023-06-17T15:54:57.868Z,3.33
2023-06-17T15:57:26.743Z,3.63
2023-06-17T15:59:55.660Z,3.42
2023-06-17T16:02:23.791Z,4.70
2023-06-17T16:04:54.791Z,6.30
2023-06-17T16:07:23.220Z,4.47
2023-06-17T16:09:53.582Z,2.88
2023-06-17T16:12:24.042Z,3.30
2023-06-17T16:14:52.159Z,3.35
2023-06-17T16:17:21.522Z,3.10
2023-06-17T16:19:49.787Z,3.50
2023-06-17T16:22:17.990Z,4.55
2023-06-17T16:24:46.105Z,2.90
2023-06-17T16:27:14.284Z,3.10
2023-06-17T16:29:43.795Z,4.43
2023-06-17T16:32:12.441Z,4.13
2023-06-17T16:34:40.824Z,2.95
2023-06-17T16:37:08.917Z,3.15
2023-06-17T16:39:37.084Z,3.17
2023-06-17T16:42:07.573Z,5.03
2023-06-17T16:44:36.053Z,3.08
2023-06-17T16:47:06.285Z,4.32
2023-06-17T16:49:34.415Z,4.25
2023-06-17T16:52:03.292Z,3.25
2023-06-17T16:54:31.432Z,3.17
2023-06-17T16:56:59.580Z,3.95
2023-06-17T16:59:27.844Z,5.00
2023-06-17T17:01:56.413Z,5.65
2023-06-17T17:04:26.172Z,4.70
2023-06-17T17:06:54.263Z,7.47
2023-06-17T17:09:22.377Z,3.25
2023-06-17T17:11:50.510Z,2.83
2023-06-17T17:14:18.637Z,5.25
2023-06-17T17:16:46.908Z,5.93
2023-06-17T17:19:15.377Z,5.65
2023-06-17T17:21:46.402Z,7.05
2023-06-17T17:24:14.886Z,5.82
2023-06-17T17:26:43.008Z,4.10
2023-06-17T17:29:11.482Z,4.90
2023-06-17T17:31:39.973Z,5.50
2023-06-17T17:34:08.075Z,8.38
2023-06-17T17:36:37.184Z,4.00
2023-06-17T17:39:07.986Z,8.10
2023-06-17T17:41:36.135Z,5.05
2023-06-17T17:44:04.245Z,6.13
2023-06-17T17:46:32.429Z,4.13
2023-06-17T17:49:00.644Z,5.55
2023-06-17T17:51:28.948Z,5.28
2023-06-17T17:53:57.039Z,3.72
2023-06-17T17:56:27.380Z,4.88
2023-06-17T17:58:55.614Z,3.65
2023-06-17T18:01:23.776Z,3.75
2023-06-17T18:03:51.891Z,3.55
2023-06-17T18:06:20.083Z,12.43
2023-06-17T18:08:48.444Z,5.97
2023-06-17T18:11:16.547Z,8.10
2023-06-17T18:13:46.001Z,3.72
2023-06-17T18:16:14.171Z,5.07
2023-06-17T18:18:42.298Z,4.60
2023-06-17T18:21:10.388Z,4.22
2023-06-17T18:23:38.610Z,6.80
2023-06-17T18:26:07.340Z,4.38
2023-06-17T18:28:35.483Z,5.72
2023-06-17T18:31:05.045Z,5.63
2023-06-17T18:33:33.168Z,6.80
2023-06-17T18:36:01.244Z,5.65
2023-06-17T18:38:29.595Z,3.92
2023-06-17T18:40:57.727Z,3.60
2023-06-17T18:43:25.950Z,5.13
2023-06-17T18:45:54.074Z,4.65
2023-06-17T18:48:24.783Z,4.85
2023-06-17T18:50:52.972Z,5.22
2023-06-17T18:53:21.104Z,4.60
2023-06-17T18:55:49.329Z,4.32
2023-06-17T18:58:17.471Z,10.18
2023-06-17T19:00:45.640Z,9.77
2023-06-17T19:03:13.842Z,6.80
2023-06-17T19:05:43.494Z,4.82
2023-06-17T19:08:11.595Z,5.38
2023-06-17T19:10:39.734Z,4.53
2023-06-17T19:13:07.837Z,4.38
2023-06-17T19:15:36.402Z,5.38
2023-06-17T19:18:04.855Z,6.28
2023-06-17T19:20:33.266Z,4.10
2023-06-17T19:23:02.950Z,4.55
2023-06-17T19:25:31.104Z,4.70
2023-06-17T19:28:00.469Z,7.88
2023-06-17T19:30:29.066Z,4.88
2023-06-17T19:32:57.228Z,5.07
2023-06-17T19:35:25.662Z,6.65
2023-06-17T19:37:53.815Z,6.18
2023-06-17T19:40:23.909Z,6.10
2023-06-17T19:42:52.280Z,6.32
2023-06-17T19:45:27.590Z,8.65
2023-06-17T19:47:56.151Z,6.85
2023-06-17T19:50:24.424Z,7.25
2023-06-17T19:52:52.645Z,10.93
2023-06-17T19:55:22.174Z,8.15
2023-06-17T19:57:50.276Z,7.18
2023-06-17T20:00:19.041Z,7.90
2023-06-17T20:02:49.829Z,6.47
2023-06-17T20:05:19.495Z,5.32
2023-06-17T20:07:47.610Z,4.75
2023-06-17T20:10:15.758Z,6.88
2023-06-17T20:12:45.217Z,14.63
2023-06-17T20:15:13.378Z,8.68
2023-06-17T20:17:41.655Z,5.00
2023-06-17T20:20:12.339Z,5.68
2023-06-17T20:22:42.296Z,4.78
2023-06-17T20:25:18.838Z,6.28
2023-06-17T20:27:48.357Z,5.13
2023-06-17T20:30:17.575Z,5.47
2023-06-17T20:32:45.724Z,7.10
2023-06-17T20:35:13.843Z,5.30
2023-06-17T20:37:43.632Z,5.18
2023-06-17T20:40:12.435Z,5.80
2023-06-17T20:42:40.607Z,7.47
2023-06-17T20:45:11.729Z,6.25
2023-06-17T20:47:39.889Z,7.50
2023-06-17T20:50:09.221Z,6.88
2023-06-17T20:52:37.407Z,11.32
2023-06-17T20:55:06.062Z,9.32
2023-06-17T20:57:34.453Z,6.93
2023-06-17T21:00:02.694Z,8.20
2023-06-17T21:02:32.337Z,5.53
2023-06-17T21:05:00.564Z,6.68
2023-06-17T21:07:28.688Z,4.55
2023-06-17T21:09:57.312Z,4.75
2023-06-17T21:12:25.590Z,4.57
2023-06-17T21:14:53.694Z,4.53
2023-06-17T21:17:21.806Z,4.70
2023-06-17T21:19:51.384Z,4.75
2023-06-17T21:22:19.561Z,4.72
2023-06-17T21:24:47.685Z,9.07
2023-06-17T21:27:15.862Z,4.50
2023-06-17T21:29:43.964Z,4.65
2023-06-17T21:32:12.605Z,4.20
2023-06-17T21:34:40.873Z,16.70
2023-06-17T21:37:10.383Z,6.80
2023-06-17T21:39:38.518Z,5.28
2023-06-17T21:42:07.246Z,10.05
2023-06-17T21:44:35.386Z,6.07
2023-06-17T21:47:03.530Z,5.97
2023-06-17T21:49:31.654Z,5.85
2023-06-17T21:51:59.916Z,5.82
2023-06-17T21:54:29.390Z,6.80
2023-06-17T21:56:57.513Z,6.72
2023-06-17T21:59:25.614Z,4.82
2023-06-17T22:01:53.771Z,7.10
2023-06-17T22:04:21.910Z,5.28
2023-06-17T22:06:50.058Z,5.00
2023-06-17T22:09:18.205Z,9.48
2023-06-17T22:11:47.669Z,5.63
2023-06-17T22:14:15.842Z,5.72
2023-06-17T22:16:43.970Z,8.15
2023-06-17T22:19:12.087Z,5.60
2023-06-17T22:21:40.194Z,6.25
2023-06-17T22:24:10.185Z,4.93
2023-06-17T22:26:38.482Z,5.32
2023-06-17T22:29:08.209Z,6.20
2023-06-17T22:31:36.367Z,5.07
2023-06-17T22:34:04.530Z,6.10
2023-06-17T22:36:32.646Z,6.50
2023-06-17T22:39:00.941Z,6.97
2023-06-17T22:41:29.181Z,6.13
2023-06-17T22:43:57.280Z,5.82
2023-06-17T22:46:27.402Z,5.35
2023-06-17T22:48:55.556Z,6.35
2023-06-17T22:51:24.535Z,5.90
2023-06-17T22:53:52.641Z,7.18
2023-06-17T22:56:20.756Z,6.40
2023-06-17T22:58:48.891Z,7.53
2023-06-17T23:01:17.066Z,6.90
2023-06-17T23:03:46.602Z,6.53
2023-06-17T23:06:14.967Z,5.97
2023-06-17T23:08:43.151Z,5.90
2023-06-17T23:11:11.439Z,6.38
2023-06-17T23:13:39.549Z,7.47
2023-06-17T23:16:07.675Z,6.38
2023-06-17T23:18:35.891Z,5.68
2023-06-17T23:21:05.909Z,6.28
2023-06-17T23:23:34.045Z,6.05
2023-06-17T23:26:03.452Z,5.60
2023-06-17T23:28:31.569Z,6.05
2023-06-17T23:31:01.415Z,7.18
2023-06-17T23:33:29.544Z,7.30
2023-06-17T23:35:57.633Z,6.38
2023-06-17T23:38:29.145Z,6.53
2023-06-17T23:40:57.455Z,6.35
2023-06-17T23:43:25.840Z,6.80
2023-06-17T23:45:56.034Z,6.15
2023-06-17T23:48:24.426Z,6.20
2023-06-17T23:50:52.890Z,6.85
2023-06-17T23:53:21.008Z,7.15
2023-06-17T23:55:50.610Z,6.53
2023-06-17T23:58:18.778Z,5.68
